createdAt,value
2023-02-08T00:02:06.274Z,99.90
2023-02-08T00:04:32.968Z,99.90
2023-02-08T00:06:59.663Z,99.90
2023-02-08T00:09:26.351Z,99.90
2023-02-08T00:11:53.004Z,99.90
2023-02-08T00:14:19.676Z,99.90
2023-02-08T00:16:46.411Z,99.90
2023-02-08T00:19:13.088Z,99.90
2023-02-08T00:21:39.765Z,99.90
2023-02-08T00:24:07.010Z,99.90
2023-02-08T00:26:33.673Z,99.90
2023-02-08T00:29:00.404Z,99.90
2023-02-08T00:31:27.183Z,99.90
2023-02-08T00:33:54.047Z,99.90
2023-02-08T00:36:20.753Z,99.90
2023-02-08T00:38:47.507Z,99.90
2023-02-08T00:41:14.425Z,99.90
2023-02-08T00:43:41.239Z,99.90
2023-02-08T00:46:09.476Z,99.90
2023-02-08T00:48:36.149Z,99.90
2023-02-08T00:51:06.650Z,99.90
2023-02-08T00:53:37.839Z,99.90
2023-02-08T00:56:05.117Z,99.90
2023-02-08T00:58:31.844Z,99.90
2023-02-08T01:00:58.611Z,99.90
2023-02-08T01:03:25.527Z,99.90
2023-02-08T01:05:53.022Z,99.90
2023-02-08T01:08:21.241Z,99.90
2023-02-08T01:10:48.134Z,99.90
2023-02-08T01:13:14.841Z,99.90
2023-02-08T01:15:41.522Z,99.90
2023-02-08T01:18:08.181Z,99.90
2023-02-08T01:20:36.443Z,99.90
2023-02-08T01:23:04.203Z,99.90
2023-02-08T01:25:30.876Z,99.90
2023-02-08T01:27:57.700Z,99.90
2023-02-08T01:30:24.526Z,99.90
2023-02-08T01:32:51.271Z,99.90
2023-02-08T01:35:17.932Z,99.90
2023-02-08T01:37:44.611Z,99.90
2023-02-08T01:40:11.853Z,99.90
2023-02-08T01:42:38.466Z,99.90
2023-02-08T01:45:23.746Z,99.90
2023-02-08T01:47:54.175Z,99.90
2023-02-08T01:50:24.970Z,99.90
2023-02-08T01:52:51.948Z,99.90
2023-02-08T01:55:26.079Z,99.90
2023-02-08T01:57:56.392Z,99.90
2023-02-08T02:00:24.069Z,99.90
2023-02-08T02:02:55.569Z,99.90
2023-02-08T02:05:30.170Z,99.90
2023-02-08T02:07:57.775Z,99.90
2023-02-08T02:10:33.321Z,99.90
2023-02-08T02:13:20.458Z,99.90
2023-02-08T02:15:47.346Z,99.90
2023-02-08T02:18:27.283Z,99.90
2023-02-08T02:21:26.538Z,99.90
2023-02-08T02:24:29.163Z,99.90
2023-02-08T02:27:16.490Z,99.90
2023-02-08T02:30:20.502Z,99.90
2023-02-08T02:32:57.973Z,99.90
2023-02-08T02:35:44.480Z,99.90
2023-02-08T02:38:49.912Z,99.90
2023-02-08T02:41:42.451Z,99.90
2023-02-08T02:44:15.230Z,99.90
2023-02-08T02:46:45.001Z,99.90
2023-02-08T02:49:16.890Z,99.90
2023-02-08T02:51:51.402Z,99.90
2023-02-08T02:54:28.936Z,99.90
2023-02-08T02:56:59.190Z,99.90
2023-02-08T02:59:26.516Z,99.90
2023-02-08T03:01:54.589Z,99.90
2023-02-08T03:04:33.381Z,99.90
2023-02-08T03:07:18.500Z,99.90
2023-02-08T03:10:03.400Z,99.90
2023-02-08T03:12:45.089Z,99.90
2023-02-08T03:15:42.161Z,99.90
2023-02-08T03:18:35.029Z,99.90
2023-02-08T03:21:15.281Z,99.90
2023-02-08T03:23:55.162Z,99.90
2023-02-08T03:26:31.827Z,99.90
2023-02-08T03:29:12.234Z,99.90
2023-02-08T03:31:43.665Z,99.90
2023-02-08T03:34:16.672Z,99.90
2023-02-08T03:36:49.231Z,99.90
2023-02-08T03:39:20.054Z,99.90
2023-02-08T03:41:49.540Z,99.90
2023-02-08T03:44:23.866Z,99.90
2023-02-08T03:46:58.483Z,99.90
2023-02-08T03:49:29.108Z,99.90
2023-02-08T03:51:59.220Z,99.90
2023-02-08T03:54:28.200Z,99.90
2023-02-08T03:57:01.952Z,99.90
2023-02-08T03:59:32.295Z,99.90
2023-02-08T04:02:01.617Z,99.90
2023-02-08T04:04:31.913Z,99.90
2023-02-08T04:06:58.684Z,99.90
2023-02-08T04:09:25.350Z,99.90
2023-02-08T04:11:52.099Z,99.90
2023-02-08T04:14:18.793Z,99.90
2023-02-08T04:16:45.484Z,99.90
2023-02-08T04:19:12.308Z,99.90
2023-02-08T04:21:39.158Z,99.90
2023-02-08T04:24:06.153Z,99.90
2023-02-08T04:26:32.905Z,99.90
2023-02-08T04:28:59.547Z,99.90
2023-02-08T04:31:26.358Z,99.90
2023-02-08T04:33:53.037Z,99.90
2023-02-08T04:36:19.729Z,99.90
2023-02-08T04:38:46.359Z,99.90
2023-02-08T04:41:13.041Z,99.90
2023-02-08T04:43:39.694Z,99.90
2023-02-08T04:46:06.661Z,99.90
2023-02-08T04:48:33.375Z,99.90
2023-02-08T04:51:00.636Z,99.90
2023-02-08T04:53:27.334Z,99.90
2023-02-08T04:55:54.141Z,99.90
2023-02-08T04:58:20.854Z,99.90
2023-02-08T05:00:47.602Z,99.90
2023-02-08T05:03:15.054Z,99.90
2023-02-08T05:05:42.005Z,99.90
2023-02-08T05:08:08.699Z,99.90
2023-02-08T05:10:35.463Z,99.90
2023-02-08T05:13:02.201Z,99.90
2023-02-08T05:15:28.848Z,99.90
2023-02-08T05:17:55.686Z,99.90
2023-02-08T05:20:22.363Z,99.90
2023-02-08T05:22:49.006Z,99.90
2023-02-08T05:25:15.677Z,99.90
2023-02-08T05:27:42.332Z,99.90
2023-02-08T05:30:09.892Z,99.90
2023-02-08T05:32:36.562Z,99.90
2023-02-08T05:35:03.300Z,99.90
2023-02-08T05:37:30.137Z,99.90
2023-02-08T05:39:56.766Z,99.90
2023-02-08T05:42:23.494Z,99.90
2023-02-08T05:44:50.142Z,99.90
2023-02-08T05:47:16.780Z,99.90
2023-02-08T05:49:43.398Z,99.90
2023-02-08T05:52:10.152Z,99.90
2023-02-08T05:54:36.803Z,99.90
2023-02-08T05:57:03.433Z,99.90
2023-02-08T05:59:30.081Z,99.90
2023-02-08T06:01:56.751Z,99.90
2023-02-08T06:04:23.501Z,99.90
2023-02-08T06:06:50.199Z,99.90
2023-02-08T06:09:16.875Z,99.90
2023-02-08T06:11:43.854Z,99.90
2023-02-08T06:14:10.500Z,99.90
2023-02-08T06:16:37.236Z,99.90
2023-02-08T06:19:03.905Z,99.90
2023-02-08T06:21:30.614Z,99.90
2023-02-08T06:23:57.315Z,99.90
2023-02-08T06:26:23.962Z,99.90
2023-02-08T06:28:50.696Z,99.90
2023-02-08T06:31:17.351Z,99.90
2023-02-08T06:33:44.023Z,99.90
2023-02-08T06:36:10.667Z,99.90
2023-02-08T06:38:37.352Z,99.90
2023-02-08T06:41:04.199Z,99.90
2023-02-08T06:43:30.906Z,99.90
2023-02-08T06:45:57.523Z,99.90
2023-02-08T06:48:24.292Z,99.90
2023-02-08T06:50:55.084Z,99.90
2023-02-08T06:53:21.737Z,99.90
2023-02-08T06:55:51.597Z,99.90
2023-02-08T06:58:18.556Z,99.90
2023-02-08T07:00:45.493Z,99.90
2023-02-08T07:03:13.253Z,99.90
2023-02-08T07:05:40.528Z,99.90
2023-02-08T07:08:07.617Z,99.90
2023-02-08T07:10:34.875Z,99.90
2023-02-08T07:13:04.604Z,99.90
2023-02-08T07:15:31.347Z,99.90
2023-02-08T07:17:58.212Z,99.90
2023-02-08T07:20:25.569Z,99.90
2023-02-08T07:22:52.356Z,99.90
2023-02-08T07:25:19.220Z,99.90
2023-02-08T07:27:45.866Z,99.90
2023-02-08T07:30:12.832Z,99.90
2023-02-08T07:32:39.540Z,99.90
2023-02-08T07:35:06.522Z,99.90
2023-02-08T07:37:33.239Z,99.90
2023-02-08T07:39:59.913Z,99.90
2023-02-08T07:42:26.582Z,99.90
2023-02-08T07:44:53.238Z,99.90
2023-02-08T07:47:19.973Z,99.90
2023-02-08T07:49:46.684Z,99.90
2023-02-08T07:52:13.312Z,99.90
2023-02-08T07:54:39.976Z,99.90
2023-02-08T07:57:06.686Z,99.90
2023-02-08T07:59:33.319Z,99.90
2023-02-08T08:02:00.018Z,99.90
2023-02-08T08:04:26.762Z,99.90
2023-02-08T08:06:53.761Z,99.90
2023-02-08T08:09:20.485Z,99.90
2023-02-08T08:11:47.169Z,99.90
2023-02-08T08:14:14.194Z,99.90
2023-02-08T08:16:42.404Z,99.90
2023-02-08T08:19:09.159Z,99.90
2023-02-08T08:21:35.844Z,99.90
2023-02-08T08:24:02.582Z,99.90
2023-02-08T08:26:29.764Z,99.90
2023-02-08T08:28:56.516Z,99.80
2023-02-08T08:31:23.826Z,99.80
2023-02-08T08:33:50.606Z,99.80
2023-02-08T08:36:17.312Z,99.60
2023-02-08T08:38:44.010Z,99.90
2023-02-08T08:41:17.815Z,99.60
2023-02-08T08:43:44.981Z,99.30
2023-02-08T08:46:11.867Z,98.50
2023-02-08T08:48:38.958Z,98.80
2023-02-08T08:51:06.535Z,98.50
2023-02-08T08:53:33.681Z,98.40
2023-02-08T08:56:00.497Z,98.40
2023-02-08T08:58:27.228Z,97.90
2023-02-08T09:00:57.023Z,97.30
2023-02-08T09:03:23.715Z,96.70
2023-02-08T09:05:50.541Z,97.60
2023-02-08T09:08:17.232Z,98.00
2023-02-08T09:10:44.144Z,98.40
2023-02-08T09:13:11.443Z,97.40
2023-02-08T09:15:41.681Z,97.10
2023-02-08T09:18:08.319Z,98.00
2023-02-08T09:20:38.156Z,97.60
2023-02-08T09:23:04.813Z,97.00
2023-02-08T09:25:33.411Z,96.70
2023-02-08T09:28:00.210Z,97.20
2023-02-08T09:30:27.002Z,97.50
2023-02-08T09:32:53.660Z,97.40
2023-02-08T09:35:20.356Z,97.40
2023-02-08T09:37:47.024Z,97.00
2023-02-08T09:40:25.285Z,96.90
2023-02-08T09:43:13.209Z,96.30
2023-02-08T09:45:58.927Z,97.00
2023-02-08T09:48:33.309Z,96.00
2023-02-08T09:51:21.885Z,96.20
2023-02-08T09:54:07.591Z,95.90
2023-02-08T09:56:40.087Z,95.60
2023-02-08T09:59:14.723Z,95.60
2023-02-08T10:01:41.416Z,95.10
2023-02-08T10:04:18.682Z,94.90
2023-02-08T10:06:45.710Z,95.80
2023-02-08T10:09:14.806Z,94.80
2023-02-08T10:12:07.007Z,94.80
2023-02-08T10:14:40.260Z,95.30
2023-02-08T10:17:32.066Z,95.10
2023-02-08T10:20:10.623Z,93.80
2023-02-08T10:23:05.704Z,94.80
2023-02-08T10:25:38.364Z,94.70
2023-02-08T10:28:33.319Z,94.70
2023-02-08T10:31:18.899Z,94.40
2023-02-08T10:34:01.697Z,94.30
2023-02-08T10:36:41.828Z,94.20
2023-02-08T10:39:17.444Z,95.00
2023-02-08T10:41:45.254Z,94.50
2023-02-08T10:44:28.084Z,94.50
2023-02-08T10:47:14.616Z,93.70
2023-02-08T10:50:06.892Z,94.20
2023-02-08T10:52:33.692Z,94.60
2023-02-08T10:55:01.030Z,94.30
2023-02-08T10:57:34.310Z,93.90
2023-02-08T11:00:07.492Z,93.60
2023-02-08T11:02:38.748Z,93.70
2023-02-08T11:05:15.022Z,94.40
2023-02-08T11:07:41.947Z,94.40
2023-02-08T11:10:20.534Z,93.90
2023-02-08T11:13:01.571Z,93.60
2023-02-08T11:15:51.754Z,93.80
2023-02-08T11:18:22.322Z,93.80
2023-02-08T11:20:52.333Z,93.90
2023-02-08T11:23:25.315Z,93.60
2023-02-08T11:25:52.398Z,93.80
2023-02-08T11:28:30.433Z,94.10
2023-02-08T11:31:02.608Z,93.30
2023-02-08T11:33:30.162Z,93.50
2023-02-08T11:36:04.429Z,93.60
2023-02-08T11:38:33.700Z,94.30
2023-02-08T11:41:02.536Z,94.70
2023-02-08T11:43:32.556Z,93.90
2023-02-08T11:46:00.065Z,93.20
2023-02-08T11:48:47.707Z,93.30
2023-02-08T11:51:23.423Z,93.30
2023-02-08T11:53:50.080Z,93.30
2023-02-08T11:56:20.724Z,92.90
2023-02-08T11:58:57.837Z,92.60
2023-02-08T12:01:29.305Z,93.30
2023-02-08T12:03:58.329Z,92.90
2023-02-08T12:07:09.416Z,93.00
2023-02-08T12:09:54.795Z,93.00
2023-02-08T12:12:39.643Z,92.80
2023-02-08T12:15:57.122Z,92.60
2023-02-08T12:18:48.130Z,92.30
2023-02-08T12:21:21.545Z,92.00
2023-02-08T12:23:59.072Z,92.30
2023-02-08T12:26:38.623Z,91.80
2023-02-08T12:29:33.168Z,91.60
2023-02-08T12:32:37.962Z,91.70
2023-02-08T12:35:10.775Z,92.60
2023-02-08T12:38:22.087Z,93.00
2023-02-08T12:41:06.671Z,93.20
2023-02-08T12:44:02.154Z,92.80
2023-02-08T12:46:41.207Z,92.50
2023-02-08T12:49:22.031Z,91.90
2023-02-08T12:52:13.574Z,91.90
2023-02-08T12:54:56.649Z,92.70
2023-02-08T12:57:25.357Z,92.50
2023-02-08T12:59:58.520Z,92.30
2023-02-08T13:02:46.070Z,92.60
2023-02-08T13:05:19.342Z,92.40
2023-02-08T13:07:50.376Z,92.60
2023-02-08T13:10:26.947Z,92.90
2023-02-08T13:12:58.859Z,92.70
2023-02-08T13:15:38.704Z,92.10
2023-02-08T13:18:23.579Z,92.10
2023-02-08T13:20:53.324Z,92.20
2023-02-08T13:23:29.385Z,91.70
2023-02-08T13:25:59.262Z,92.00
2023-02-08T13:28:26.646Z,92.40
2023-02-08T13:31:06.173Z,92.50
2023-02-08T13:34:00.536Z,92.60
2023-02-08T13:36:42.581Z,92.40
2023-02-08T13:39:32.737Z,91.70
2023-02-08T13:42:00.109Z,92.50
2023-02-08T13:44:32.305Z,92.90
2023-02-08T13:46:59.110Z,92.90
2023-02-08T13:49:49.477Z,92.90
2023-02-08T13:52:47.029Z,92.50
2023-02-08T13:55:33.651Z,93.10
2023-02-08T13:58:02.042Z,93.60
2023-02-08T14:00:30.368Z,93.20
2023-02-08T14:03:02.194Z,93.80
2023-02-08T14:05:51.244Z,93.30
2023-02-08T14:08:23.746Z,93.40
2023-02-08T14:11:29.271Z,93.60
2023-02-08T14:14:14.183Z,93.70
2023-02-08T14:16:42.211Z,93.10
2023-02-08T14:19:18.224Z,93.50
2023-02-08T14:21:49.303Z,93.50
2023-02-08T14:24:30.886Z,93.40
2023-02-08T14:27:19.790Z,93.30
2023-02-08T14:30:08.151Z,93.50
2023-02-08T14:32:38.360Z,93.80
2023-02-08T14:35:09.819Z,93.50
2023-02-08T14:37:37.408Z,93.60
2023-02-08T14:40:25.288Z,93.80
2023-02-08T14:42:58.137Z,94.00
2023-02-08T14:45:32.780Z,93.90
2023-02-08T14:48:14.840Z,94.10
2023-02-08T14:50:50.148Z,94.00
2023-02-08T14:53:21.953Z,94.00
2023-02-08T14:56:00.001Z,94.30
2023-02-08T14:58:36.526Z,94.20
2023-02-08T15:01:12.963Z,94.10
2023-02-08T15:03:40.185Z,94.70
2023-02-08T15:06:33.502Z,94.40
2023-02-08T15:09:00.629Z,94.70
2023-02-08T15:11:31.078Z,94.80
2023-02-08T15:14:01.219Z,94.70
2023-02-08T15:16:36.906Z,94.60
2023-02-08T15:19:04.964Z,94.50
2023-02-08T15:21:36.480Z,94.50
2023-02-08T15:24:13.415Z,94.90
2023-02-08T15:26:54.255Z,94.70
2023-02-08T15:29:24.605Z,95.10
2023-02-08T15:31:54.242Z,94.90
2023-02-08T15:34:23.547Z,95.00
2023-02-08T15:36:52.880Z,95.00
2023-02-08T15:39:34.000Z,95.10
2023-02-08T15:42:01.180Z,95.30
2023-02-08T15:44:33.149Z,95.30
2023-02-08T15:47:02.409Z,95.40
2023-02-08T15:49:35.818Z,95.60
2023-02-08T15:52:03.621Z,95.60
2023-02-08T15:54:30.449Z,95.60
2023-02-08T15:57:02.935Z,95.50
2023-02-08T15:59:35.265Z,95.60
2023-02-08T16:02:15.080Z,95.80
2023-02-08T16:04:45.690Z,95.60
2023-02-08T16:07:32.461Z,95.60
2023-02-08T16:09:59.213Z,95.50
2023-02-08T16:12:27.916Z,95.50
2023-02-08T16:14:56.665Z,95.70
2023-02-08T16:17:43.799Z,95.60
2023-02-08T16:20:34.448Z,95.70
2023-02-08T16:23:22.527Z,96.20
2023-02-08T16:25:49.767Z,96.10
2023-02-08T16:28:35.203Z,96.20
2023-02-08T16:31:03.538Z,96.10
2023-02-08T16:33:31.685Z,96.20
2023-02-08T16:36:02.243Z,96.40
2023-02-08T16:38:31.389Z,96.50
2023-02-08T16:41:11.897Z,96.70
2023-02-08T16:43:47.092Z,96.60
2023-02-08T16:46:18.755Z,96.80
2023-02-08T16:48:55.157Z,96.90
2023-02-08T16:51:27.283Z,96.90
2023-02-08T16:54:07.477Z,96.90
2023-02-08T16:56:37.787Z,96.90
2023-02-08T16:59:05.297Z,97.00
2023-02-08T17:01:33.247Z,97.10
2023-02-08T17:04:00.046Z,97.10
2023-02-08T17:06:31.089Z,97.20
2023-02-08T17:09:02.380Z,97.20
2023-02-08T17:11:29.801Z,97.20
2023-02-08T17:13:58.313Z,97.30
2023-02-08T17:16:28.154Z,97.40
2023-02-08T17:18:55.246Z,97.50
2023-02-08T17:21:22.706Z,97.50
2023-02-08T17:23:49.539Z,97.60
2023-02-08T17:26:19.921Z,97.70
2023-02-08T17:28:46.963Z,97.70
2023-02-08T17:31:14.443Z,97.80
2023-02-08T17:33:41.369Z,97.90
2023-02-08T17:36:10.687Z,98.00
2023-02-08T17:38:41.472Z,98.00
2023-02-08T17:41:19.655Z,98.20
2023-02-08T17:43:50.789Z,98.20
2023-02-08T17:46:20.477Z,98.30
2023-02-08T17:48:48.345Z,98.30
2023-02-08T17:51:17.929Z,98.30
2023-02-08T17:53:44.917Z,98.40
2023-02-08T17:56:17.961Z,98.50
2023-02-08T17:58:45.388Z,98.40
2023-02-08T18:01:18.934Z,98.50
2023-02-08T18:03:46.969Z,98.50
2023-02-08T18:06:14.026Z,98.60
2023-02-08T18:08:41.050Z,98.50
2023-02-08T18:11:12.983Z,98.50
2023-02-08T18:13:40.473Z,98.50
2023-02-08T18:16:12.286Z,98.50
2023-02-08T18:18:39.280Z,98.50
2023-02-08T18:21:14.962Z,98.50
2023-02-08T18:23:42.263Z,98.60
2023-02-08T18:26:12.489Z,98.60
2023-02-08T18:28:39.499Z,98.50
2023-02-08T18:31:12.177Z,98.50
2023-02-08T18:33:38.884Z,98.50
2023-02-08T18:36:06.323Z,98.50
2023-02-08T18:38:33.632Z,98.50
2023-02-08T18:41:01.592Z,98.40
2023-02-08T18:43:28.386Z,98.40
2023-02-08T18:46:00.369Z,98.40
2023-02-08T18:48:27.094Z,98.50
2023-02-08T18:50:58.108Z,98.60
2023-02-08T18:53:27.339Z,98.60
2023-02-08T18:55:54.899Z,98.60
2023-02-08T18:58:22.363Z,98.60
2023-02-08T19:00:50.132Z,98.60
2023-02-08T19:03:18.148Z,98.60
2023-02-08T19:05:45.527Z,98.60
2023-02-08T19:08:13.148Z,98.70
2023-02-08T19:10:40.831Z,98.70
2023-02-08T19:13:08.199Z,98.70
2023-02-08T19:15:37.082Z,98.60
2023-02-08T19:18:05.127Z,98.70
2023-02-08T19:20:38.014Z,98.80
2023-02-08T19:23:05.699Z,98.90
2023-02-08T19:25:37.015Z,98.90
2023-02-08T19:28:04.648Z,98.90
2023-02-08T19:30:31.384Z,98.90
2023-02-08T19:32:58.157Z,98.90
2023-02-08T19:35:24.876Z,99.00
2023-02-08T19:37:52.642Z,99.00
2023-02-08T19:40:19.961Z,99.10
2023-02-08T19:42:46.759Z,99.10
2023-02-08T19:45:13.740Z,99.20
2023-02-08T19:47:51.065Z,99.20
2023-02-08T19:50:18.554Z,99.20
2023-02-08T19:52:45.208Z,99.20
2023-02-08T19:55:11.878Z,99.40
2023-02-08T19:57:40.030Z,99.40
2023-02-08T20:00:17.498Z,99.50
2023-02-08T20:02:48.188Z,99.50
2023-02-08T20:05:14.887Z,99.50
2023-02-08T20:07:41.660Z,99.60
2023-02-08T20:10:09.115Z,99.60
2023-02-08T20:12:35.752Z,99.70
2023-02-08T20:15:02.578Z,99.70
2023-02-08T20:17:29.532Z,99.70
2023-02-08T20:19:56.231Z,99.80
2023-02-08T20:22:22.893Z,99.80
2023-02-08T20:24:49.728Z,99.90
2023-02-08T20:27:16.613Z,99.90
2023-02-08T20:29:43.331Z,99.90
2023-02-08T20:32:10.099Z,99.90
2023-02-08T20:34:38.154Z,99.90
2023-02-08T20:37:08.093Z,99.90
2023-02-08T20:39:36.382Z,99.90
2023-02-08T20:42:03.990Z,99.90
2023-02-08T20:44:31.621Z,99.90
2023-02-08T20:46:58.282Z,99.90
2023-02-08T20:49:26.440Z,99.90
2023-02-08T20:51:54.101Z,99.90
2023-02-08T20:54:23.836Z,99.90
2023-02-08T20:56:51.794Z,99.90
2023-02-08T20:59:18.538Z,99.90
2023-02-08T21:01:46.451Z,99.90
2023-02-08T21:04:13.601Z,99.90
2023-02-08T21:06:44.245Z,99.90
2023-02-08T21:09:15.872Z,99.90
2023-02-08T21:11:42.686Z,99.90
2023-02-08T21:14:18.847Z,99.90
2023-02-08T21:16:56.598Z,99.90
2023-02-08T21:19:23.310Z,99.90
2023-02-08T21:21:54.644Z,99.90
2023-02-08T21:24:23.714Z,99.90
2023-02-08T21:26:51.895Z,99.90
2023-02-08T21:29:18.613Z,99.90
2023-02-08T21:31:45.840Z,99.90
2023-02-08T21:34:13.379Z,99.90
2023-02-08T21:36:40.052Z,99.90
2023-02-08T21:39:06.830Z,99.90
2023-02-08T21:41:34.138Z,99.90
2023-02-08T21:44:03.766Z,99.90
2023-02-08T21:46:31.814Z,99.90
2023-02-08T21:49:17.358Z,99.90
2023-02-08T21:52:03.170Z,99.90
2023-02-08T21:54:41.942Z,99.90
2023-02-08T21:57:14.078Z,99.90
2023-02-08T21:59:41.029Z,99.90
2023-02-08T22:02:25.763Z,99.90
2023-02-08T22:05:12.613Z,99.90
2023-02-08T22:07:51.928Z,99.90
2023-02-08T22:10:21.327Z,99.90
2023-02-08T22:12:48.583Z,99.90
2023-02-08T22:15:17.753Z,99.90
2023-02-08T22:17:44.867Z,99.90
2023-02-08T22:20:13.105Z,99.90
2023-02-08T22:22:39.816Z,99.90
2023-02-08T22:25:06.919Z,99.90
2023-02-08T22:27:34.449Z,99.90
2023-02-08T22:30:01.184Z,99.90
2023-02-08T22:32:27.856Z,99.90
2023-02-08T22:34:54.714Z,99.90
2023-02-08T22:37:21.635Z,99.90
2023-02-08T22:39:48.282Z,99.90
2023-02-08T22:42:15.018Z,99.90
2023-02-08T22:44:42.961Z,99.90
2023-02-08T22:47:11.181Z,99.90
2023-02-08T22:49:38.650Z,99.90
2023-02-08T22:52:06.645Z,99.90
2023-02-08T22:54:33.375Z,99.90
2023-02-08T22:57:00.523Z,99.90
2023-02-08T22:59:27.304Z,99.90
2023-02-08T23:01:54.128Z,99.90
2023-02-08T23:04:20.833Z,99.90
2023-02-08T23:06:47.961Z,99.90
2023-02-08T23:09:14.806Z,99.90
2023-02-08T23:11:41.562Z,99.90
2023-02-08T23:14:08.542Z,99.90
2023-02-08T23:16:35.571Z,99.90
2023-02-08T23:19:02.259Z,99.90
2023-02-08T23:21:28.901Z,99.90
2023-02-08T23:23:55.568Z,99.90
2023-02-08T23:26:22.369Z,99.90
2023-02-08T23:28:53.558Z,99.90
2023-02-08T23:31:20.800Z,99.90
2023-02-08T23:33:48.247Z,99.90
2023-02-08T23:36:17.446Z,99.90
2023-02-08T23:38:44.154Z,99.90
2023-02-08T23:41:13.855Z,99.90
2023-02-08T23:43:40.877Z,99.90
2023-02-08T23:46:09.128Z,99.90
2023-02-08T23:48:37.039Z,99.90
2023-02-08T23:51:05.576Z,99.90
2023-02-08T23:53:33.559Z,99.90
2023-02-08T23:56:05.944Z,99.90
2023-02-08T23:58:32.767Z,99.90
